sensor_id;sensor_type;location;lat;lon;timestamp;P1;durP1;ratioP1;P2;durP2;ratioP2
18196;SDS011;9224;52.422;13.024;2024-01-16T00:00:59;171.47;;;114.53;;
18196;SDS011;9224;52.422;13.024;2024-01-16T00:03:25;172.90;;;113.40;;
18196;SDS011;9224;52.422;13.024;2024-01-16T00:05:51;168.90;;;112.73;;
18196;SDS011;9224;52.422;13.024;2024-01-16T00:08:17;167.03;;;112.53;;
18196;SDS011;9224;52.422;13.024;2024-01-16T00:10:44;169.13;;;113.47;;
18196;SDS011;9224;52.422;13.024;2024-01-16T00:13:11;167.93;;;112.20;;
18196;SDS011;9224;52.422;13.024;2024-01-16T00:15:37;170.60;;;113.07;;
18196;SDS011;9224;52.422;13.024;2024-01-16T00:18:08;171.30;;;113.10;;
18196;SDS011;9224;52.422;13.024;2024-01-16T00:20:34;170.27;;;113.07;;
18196;SDS011;9224;52.422;13.024;2024-01-16T00:23:01;178.40;;;114.43;;
18196;SDS011;9224;52.422;13.024;2024-01-16T00:25:28;173.17;;;113.87;;
18196;SDS011;9224;52.422;13.024;2024-01-16T00:27:54;172.03;;;113.47;;
18196;SDS011;9224;52.422;13.024;2024-01-16T00:30:21;174.90;;;115.43;;
18196;SDS011;9224;52.422;13.024;2024-01-16T00:32:48;175.73;;;115.50;;
18196;SDS011;9224;52.422;13.024;2024-01-16T00:35:16;174.50;;;114.90;;
18196;SDS011;9224;52.422;13.024;2024-01-16T00:37:42;170.80;;;113.80;;
18196;SDS011;9224;52.422;13.024;2024-01-16T00:40:09;173.77;;;114.17;;
18196;SDS011;9224;52.422;13.024;2024-01-16T00:42:36;171.83;;;113.33;;
18196;SDS011;9224;52.422;13.024;2024-01-16T00:45:03;169.97;;;112.60;;
18196;SDS011;9224;52.422;13.024;2024-01-16T00:47:30;172.60;;;113.80;;
18196;SDS011;9224;52.422;13.024;2024-01-16T00:49:58;172.00;;;113.10;;
18196;SDS011;9224;52.422;13.024;2024-01-16T00:52:26;172.03;;;114.10;;
18196;SDS011;9224;52.422;13.024;2024-01-16T00:54:53;171.83;;;114.97;;
18196;SDS011;9224;52.422;13.024;2024-01-16T00:57:19;171.93;;;113.80;;
18196;SDS011;9224;52.422;13.024;2024-01-16T00:59:47;169.90;;;113.10;;
18196;SDS011;9224;52.422;13.024;2024-01-16T01:02:13;170.60;;;114.13;;
18196;SDS011;9224;52.422;13.024;2024-01-16T01:04:40;173.37;;;114.90;;
18196;SDS011;9224;52.422;13.024;2024-01-16T01:07:08;174.67;;;114.23;;
18196;SDS011;9224;52.422;13.024;2024-01-16T01:09:36;174.50;;;117.03;;
18196;SDS011;9224;52.422;13.024;2024-01-16T01:12:19;173.47;;;116.37;;
18196;SDS011;9224;52.422;13.024;2024-01-16T01:14:53;171.00;;;114.60;;
18196;SDS011;9224;52.422;13.024;2024-01-16T01:17:24;170.77;;;113.87;;
18196;SDS011;9224;52.422;13.024;2024-01-16T01:19:54;169.20;;;113.17;;
18196;SDS011;9224;52.422;13.024;2024-01-16T01:22:27;169.37;;;111.23;;
18196;SDS011;9224;52.422;13.024;2024-01-16T01:24:55;169.87;;;110.77;;
18196;SDS011;9224;52.422;13.024;2024-01-16T01:27:22;167.47;;;111.83;;
18196;SDS011;9224;52.422;13.024;2024-01-16T01:29:48;169.27;;;111.97;;
18196;SDS011;9224;52.422;13.024;2024-01-16T01:32:15;170.03;;;112.30;;
18196;SDS011;9224;52.422;13.024;2024-01-16T01:34:47;174.33;;;112.40;;
18196;SDS011;9224;52.422;13.024;2024-01-16T01:37:14;167.87;;;110.93;;
18196;SDS011;9224;52.422;13.024;2024-01-16T01:39:40;168.53;;;110.87;;
18196;SDS011;9224;52.422;13.024;2024-01-16T01:42:08;167.17;;;110.43;;
18196;SDS011;9224;52.422;13.024;2024-01-16T01:44:35;167.67;;;111.83;;
18196;SDS011;9224;52.422;13.024;2024-01-16T01:47:02;168.17;;;111.20;;
18196;SDS011;9224;52.422;13.024;2024-01-16T01:49:30;167.87;;;111.70;;
18196;SDS011;9224;52.422;13.024;2024-01-16T01:51:57;168.80;;;112.40;;
18196;SDS011;9224;52.422;13.024;2024-01-16T01:54:26;169.00;;;111.40;;
18196;SDS011;9224;52.422;13.024;2024-01-16T01:56:53;170.10;;;111.10;;
18196;SDS011;9224;52.422;13.024;2024-01-16T01:59:21;167.10;;;109.80;;
18196;SDS011;9224;52.422;13.024;2024-01-16T02:01:48;168.10;;;110.83;;
18196;SDS011;9224;52.422;13.024;2024-01-16T02:04:17;169.57;;;111.40;;
18196;SDS011;9224;52.422;13.024;2024-01-16T02:06:48;169.70;;;111.37;;
18196;SDS011;9224;52.422;13.024;2024-01-16T02:09:15;171.80;;;111.77;;
18196;SDS011;9224;52.422;13.024;2024-01-16T02:11:42;169.77;;;112.13;;
18196;SDS011;9224;52.422;13.024;2024-01-16T02:14:09;170.90;;;112.77;;
18196;SDS011;9224;52.422;13.024;2024-01-16T02:16:37;169.37;;;112.40;;
18196;SDS011;9224;52.422;13.024;2024-01-16T02:19:07;171.97;;;113.03;;
18196;SDS011;9224;52.422;13.024;2024-01-16T02:21:36;169.13;;;111.17;;
18196;SDS011;9224;52.422;13.024;2024-01-16T02:24:06;171.80;;;111.47;;
18196;SDS011;9224;52.422;13.024;2024-01-16T02:26:34;171.40;;;111.30;;
18196;SDS011;9224;52.422;13.024;2024-01-16T02:29:00;172.07;;;111.97;;
18196;SDS011;9224;52.422;13.024;2024-01-16T02:31:28;169.83;;;111.00;;
18196;SDS011;9224;52.422;13.024;2024-01-16T02:33:55;168.33;;;110.73;;
18196;SDS011;9224;52.422;13.024;2024-01-16T02:36:21;171.30;;;113.17;;
18196;SDS011;9224;52.422;13.024;2024-01-16T02:38:48;167.30;;;111.77;;
18196;SDS011;9224;52.422;13.024;2024-01-16T02:41:16;171.13;;;112.83;;
18196;SDS011;9224;52.422;13.024;2024-01-16T02:43:43;169.23;;;110.87;;
18196;SDS011;9224;52.422;13.024;2024-01-16T02:46:10;169.70;;;111.40;;
18196;SDS011;9224;52.422;13.024;2024-01-16T02:48:36;167.70;;;110.77;;
18196;SDS011;9224;52.422;13.024;2024-01-16T02:51:03;168.30;;;111.13;;
18196;SDS011;9224;52.422;13.024;2024-01-16T02:53:31;169.50;;;111.30;;
18196;SDS011;9224;52.422;13.024;2024-01-16T02:55:58;169.70;;;111.93;;
18196;SDS011;9224;52.422;13.024;2024-01-16T02:58:25;169.67;;;111.57;;
18196;SDS011;9224;52.422;13.024;2024-01-16T03:00:52;169.67;;;111.37;;
18196;SDS011;9224;52.422;13.024;2024-01-16T03:03:19;169.03;;;111.00;;
18196;SDS011;9224;52.422;13.024;2024-01-16T03:05:45;167.70;;;110.77;;
18196;SDS011;9224;52.422;13.024;2024-01-16T03:08:12;169.57;;;111.00;;
18196;SDS011;9224;52.422;13.024;2024-01-16T03:10:39;169.93;;;111.37;;
18196;SDS011;9224;52.422;13.024;2024-01-16T03:13:06;170.07;;;111.50;;
18196;SDS011;9224;52.422;13.024;2024-01-16T03:15:34;169.27;;;112.33;;
18196;SDS011;9224;52.422;13.024;2024-01-16T03:18:01;168.33;;;111.23;;
18196;SDS011;9224;52.422;13.024;2024-01-16T03:20:27;165.67;;;110.23;;
18196;SDS011;9224;52.422;13.024;2024-01-16T03:22:54;167.83;;;109.73;;
18196;SDS011;9224;52.422;13.024;2024-01-16T03:25:21;166.63;;;110.77;;
18196;SDS011;9224;52.422;13.024;2024-01-16T03:27:47;164.17;;;109.70;;
18196;SDS011;9224;52.422;13.024;2024-01-16T03:30:14;167.53;;;111.07;;
18196;SDS011;9224;52.422;13.024;2024-01-16T03:32:42;168.93;;;111.13;;
18196;SDS011;9224;52.422;13.024;2024-01-16T03:35:09;165.80;;;110.67;;
18196;SDS011;9224;52.422;13.024;2024-01-16T03:37:37;164.87;;;109.87;;
18196;SDS011;9224;52.422;13.024;2024-01-16T03:40:04;166.57;;;111.00;;
18196;SDS011;9224;52.422;13.024;2024-01-16T03:42:32;164.57;;;109.57;;
18196;SDS011;9224;52.422;13.024;2024-01-16T03:44:59;166.77;;;110.57;;
18196;SDS011;9224;52.422;13.024;2024-01-16T03:47:25;165.63;;;109.43;;
18196;SDS011;9224;52.422;13.024;2024-01-16T03:49:53;165.57;;;110.20;;
18196;SDS011;9224;52.422;13.024;2024-01-16T03:52:20;166.50;;;109.83;;
18196;SDS011;9224;52.422;13.024;2024-01-16T03:54:46;168.87;;;110.07;;
18196;SDS011;9224;52.422;13.024;2024-01-16T03:57:13;167.10;;;110.70;;
18196;SDS011;9224;52.422;13.024;2024-01-16T03:59:40;170.23;;;112.40;;
18196;SDS011;9224;52.422;13.024;2024-01-16T04:02:06;168.23;;;110.63;;
18196;SDS011;9224;52.422;13.024;2024-01-16T04:04:33;165.93;;;110.20;;
18196;SDS011;9224;52.422;13.024;2024-01-16T04:07:02;169.30;;;110.90;;
18196;SDS011;9224;52.422;13.024;2024-01-16T04:09:28;166.17;;;110.80;;
18196;SDS011;9224;52.422;13.024;2024-01-16T04:11:55;163.77;;;109.90;;
18196;SDS011;9224;52.422;13.024;2024-01-16T04:14:22;165.67;;;111.30;;
18196;SDS011;9224;52.422;13.024;2024-01-16T04:16:48;166.10;;;111.03;;
18196;SDS011;9224;52.422;13.024;2024-01-16T04:19:15;165.37;;;110.43;;
18196;SDS011;9224;52.422;13.024;2024-01-16T04:21:42;165.03;;;110.93;;
18196;SDS011;9224;52.422;13.024;2024-01-16T04:24:10;166.17;;;111.00;;
18196;SDS011;9224;52.422;13.024;2024-01-16T04:26:37;165.90;;;111.30;;
18196;SDS011;9224;52.422;13.024;2024-01-16T04:29:06;164.37;;;110.13;;
18196;SDS011;9224;52.422;13.024;2024-01-16T04:31:38;165.57;;;111.03;;
18196;SDS011;9224;52.422;13.024;2024-01-16T04:34:05;164.30;;;110.63;;
18196;SDS011;9224;52.422;13.024;2024-01-16T04:36:32;167.70;;;110.67;;
18196;SDS011;9224;52.422;13.024;2024-01-16T04:38:58;167.47;;;110.53;;
18196;SDS011;9224;52.422;13.024;2024-01-16T04:41:26;165.73;;;110.00;;
18196;SDS011;9224;52.422;13.024;2024-01-16T04:43:53;166.50;;;110.47;;
18196;SDS011;9224;52.422;13.024;2024-01-16T04:46:20;166.03;;;110.40;;
18196;SDS011;9224;52.422;13.024;2024-01-16T04:48:46;168.40;;;110.80;;
18196;SDS011;9224;52.422;13.024;2024-01-16T04:51:13;168.13;;;111.20;;
18196;SDS011;9224;52.422;13.024;2024-01-16T04:53:39;169.43;;;112.03;;
18196;SDS011;9224;52.422;13.024;2024-01-16T04:56:06;171.77;;;112.23;;
18196;SDS011;9224;52.422;13.024;2024-01-16T04:58:34;170.17;;;112.43;;
18196;SDS011;9224;52.422;13.024;2024-01-16T05:01:01;166.73;;;111.57;;
18196;SDS011;9224;52.422;13.024;2024-01-16T05:03:27;166.67;;;111.00;;
18196;SDS011;9224;52.422;13.024;2024-01-16T05:05:54;165.17;;;110.87;;
18196;SDS011;9224;52.422;13.024;2024-01-16T05:08:21;166.00;;;110.90;;
18196;SDS011;9224;52.422;13.024;2024-01-16T05:10:49;166.43;;;110.90;;
18196;SDS011;9224;52.422;13.024;2024-01-16T05:13:15;166.00;;;110.43;;
18196;SDS011;9224;52.422;13.024;2024-01-16T05:15:43;167.70;;;110.20;;
18196;SDS011;9224;52.422;13.024;2024-01-16T05:18:10;168.93;;;111.10;;
18196;SDS011;9224;52.422;13.024;2024-01-16T05:20:37;170.50;;;112.50;;
18196;SDS011;9224;52.422;13.024;2024-01-16T05:23:03;170.10;;;112.47;;
18196;SDS011;9224;52.422;13.024;2024-01-16T05:25:31;170.00;;;111.87;;
18196;SDS011;9224;52.422;13.024;2024-01-16T05:27:57;174.13;;;113.00;;
18196;SDS011;9224;52.422;13.024;2024-01-16T05:30:24;173.57;;;112.47;;
18196;SDS011;9224;52.422;13.024;2024-01-16T05:32:52;178.50;;;113.17;;
18196;SDS011;9224;52.422;13.024;2024-01-16T05:35:18;176.47;;;113.00;;
18196;SDS011;9224;52.422;13.024;2024-01-16T05:37:45;181.00;;;113.33;;
18196;SDS011;9224;52.422;13.024;2024-01-16T05:40:12;180.77;;;111.80;;
18196;SDS011;9224;52.422;13.024;2024-01-16T05:42:38;183.47;;;112.97;;
18196;SDS011;9224;52.422;13.024;2024-01-16T05:45:05;182.70;;;113.50;;
18196;SDS011;9224;52.422;13.024;2024-01-16T05:47:32;183.33;;;113.47;;
18196;SDS011;9224;52.422;13.024;2024-01-16T05:50:00;185.20;;;113.53;;
18196;SDS011;9224;52.422;13.024;2024-01-16T05:52:28;182.80;;;113.70;;
18196;SDS011;9224;52.422;13.024;2024-01-16T05:54:55;186.00;;;113.60;;
18196;SDS011;9224;52.422;13.024;2024-01-16T05:57:23;189.23;;;114.60;;
18196;SDS011;9224;52.422;13.024;2024-01-16T05:59:50;186.70;;;115.20;;
18196;SDS011;9224;52.422;13.024;2024-01-16T06:02:16;188.23;;;113.93;;
18196;SDS011;9224;52.422;13.024;2024-01-16T06:04:43;188.17;;;114.40;;
18196;SDS011;9224;52.422;13.024;2024-01-16T06:07:11;189.37;;;115.03;;
18196;SDS011;9224;52.422;13.024;2024-01-16T06:09:38;186.90;;;114.33;;
18196;SDS011;9224;52.422;13.024;2024-01-16T06:12:05;189.03;;;114.90;;
18196;SDS011;9224;52.422;13.024;2024-01-16T06:14:33;188.17;;;114.30;;
18196;SDS011;9224;52.422;13.024;2024-01-16T06:16:59;186.07;;;113.00;;
18196;SDS011;9224;52.422;13.024;2024-01-16T06:19:28;184.20;;;113.23;;
18196;SDS011;9224;52.422;13.024;2024-01-16T06:21:54;183.47;;;114.00;;
18196;SDS011;9224;52.422;13.024;2024-01-16T06:24:22;182.93;;;114.10;;
18196;SDS011;9224;52.422;13.024;2024-01-16T06:26:49;178.57;;;113.30;;
18196;SDS011;9224;52.422;13.024;2024-01-16T06:29:16;181.13;;;113.53;;
18196;SDS011;9224;52.422;13.024;2024-01-16T06:31:42;179.23;;;112.53;;
18196;SDS011;9224;52.422;13.024;2024-01-16T06:34:09;176.23;;;112.87;;
18196;SDS011;9224;52.422;13.024;2024-01-16T06:36:36;175.63;;;112.77;;
18196;SDS011;9224;52.422;13.024;2024-01-16T06:39:02;175.07;;;112.37;;
18196;SDS011;9224;52.422;13.024;2024-01-16T06:41:30;173.10;;;112.10;;
18196;SDS011;9224;52.422;13.024;2024-01-16T06:43:57;179.13;;;113.50;;
18196;SDS011;9224;52.422;13.024;2024-01-16T06:46:23;183.27;;;113.47;;
18196;SDS011;9224;52.422;13.024;2024-01-16T06:48:50;177.20;;;113.17;;
18196;SDS011;9224;52.422;13.024;2024-01-16T06:51:17;177.00;;;113.53;;
18196;SDS011;9224;52.422;13.024;2024-01-16T06:53:43;177.23;;;113.00;;
18196;SDS011;9224;52.422;13.024;2024-01-16T06:56:10;171.60;;;112.07;;
18196;SDS011;9224;52.422;13.024;2024-01-16T06:58:38;173.23;;;112.20;;
18196;SDS011;9224;52.422;13.024;2024-01-16T07:01:05;172.43;;;112.67;;
18196;SDS011;9224;52.422;13.024;2024-01-16T07:03:33;172.17;;;111.93;;
18196;SDS011;9224;52.422;13.024;2024-01-16T07:05:59;174.50;;;113.70;;
18196;SDS011;9224;52.422;13.024;2024-01-16T07:08:26;173.17;;;112.63;;
18196;SDS011;9224;52.422;13.024;2024-01-16T07:10:53;183.67;;;115.27;;
18196;SDS011;9224;52.422;13.024;2024-01-16T07:13:19;178.53;;;114.30;;
18196;SDS011;9224;52.422;13.024;2024-01-16T07:15:47;180.60;;;114.97;;
18196;SDS011;9224;52.422;13.024;2024-01-16T07:18:14;176.70;;;113.30;;
18196;SDS011;9224;52.422;13.024;2024-01-16T07:20:41;178.30;;;114.73;;
18196;SDS011;9224;52.422;13.024;2024-01-16T07:23:08;181.13;;;114.87;;
18196;SDS011;9224;52.422;13.024;2024-01-16T07:25:34;181.47;;;115.77;;
18196;SDS011;9224;52.422;13.024;2024-01-16T07:28:01;177.53;;;114.33;;
18196;SDS011;9224;52.422;13.024;2024-01-16T07:30:28;178.60;;;115.03;;
18196;SDS011;9224;52.422;13.024;2024-01-16T07:32:56;183.87;;;116.43;;
18196;SDS011;9224;52.422;13.024;2024-01-16T07:35:22;179.47;;;115.90;;
18196;SDS011;9224;52.422;13.024;2024-01-16T07:37:49;177.57;;;114.07;;
18196;SDS011;9224;52.422;13.024;2024-01-16T07:40:16;176.77;;;113.83;;
18196;SDS011;9224;52.422;13.024;2024-01-16T07:42:43;178.90;;;114.93;;
18196;SDS011;9224;52.422;13.024;2024-01-16T07:45:09;179.17;;;114.73;;
18196;SDS011;9224;52.422;13.024;2024-01-16T07:47:36;176.73;;;114.53;;
18196;SDS011;9224;52.422;13.024;2024-01-16T07:50:05;177.10;;;115.10;;
18196;SDS011;9224;52.422;13.024;2024-01-16T07:52:32;177.10;;;115.07;;
18196;SDS011;9224;52.422;13.024;2024-01-16T07:54:59;176.93;;;114.93;;
18196;SDS011;9224;52.422;13.024;2024-01-16T07:57:25;179.93;;;116.20;;
18196;SDS011;9224;52.422;13.024;2024-01-16T07:59:52;176.53;;;114.67;;
18196;SDS011;9224;52.422;13.024;2024-01-16T08:02:19;179.27;;;115.37;;
18196;SDS011;9224;52.422;13.024;2024-01-16T08:04:46;179.07;;;116.17;;
18196;SDS011;9224;52.422;13.024;2024-01-16T08:07:14;182.00;;;116.80;;
18196;SDS011;9224;52.422;13.024;2024-01-16T08:09:41;179.70;;;115.97;;
18196;SDS011;9224;52.422;13.024;2024-01-16T08:12:08;181.60;;;116.87;;
18196;SDS011;9224;52.422;13.024;2024-01-16T08:14:35;180.10;;;116.13;;
18196;SDS011;9224;52.422;13.024;2024-01-16T08:17:01;183.17;;;118.27;;
18196;SDS011;9224;52.422;13.024;2024-01-16T08:19:28;186.93;;;119.10;;
18196;SDS011;9224;52.422;13.024;2024-01-16T08:21:57;193.27;;;122.67;;
18196;SDS011;9224;52.422;13.024;2024-01-16T08:24:26;188.23;;;119.37;;
18196;SDS011;9224;52.422;13.024;2024-01-16T08:26:53;186.30;;;118.90;;
18196;SDS011;9224;52.422;13.024;2024-01-16T08:29:22;185.50;;;117.73;;
18196;SDS011;9224;52.422;13.024;2024-01-16T08:31:49;185.33;;;118.37;;
18196;SDS011;9224;52.422;13.024;2024-01-16T08:34:16;181.30;;;117.13;;
18196;SDS011;9224;52.422;13.024;2024-01-16T08:36:43;189.23;;;119.70;;
18196;SDS011;9224;52.422;13.024;2024-01-16T08:39:13;182.27;;;119.17;;
18196;SDS011;9224;52.422;13.024;2024-01-16T08:41:42;181.03;;;117.77;;
18196;SDS011;9224;52.422;13.024;2024-01-16T08:44:10;182.47;;;117.13;;
18196;SDS011;9224;52.422;13.024;2024-01-16T08:46:37;183.27;;;118.33;;
18196;SDS011;9224;52.422;13.024;2024-01-16T08:49:04;185.43;;;118.80;;
18196;SDS011;9224;52.422;13.024;2024-01-16T08:51:30;184.73;;;118.43;;
18196;SDS011;9224;52.422;13.024;2024-01-16T08:54:00;187.57;;;119.30;;
18196;SDS011;9224;52.422;13.024;2024-01-16T08:56:28;184.87;;;118.43;;
18196;SDS011;9224;52.422;13.024;2024-01-16T08:58:57;186.30;;;117.90;;
18196;SDS011;9224;52.422;13.024;2024-01-16T09:01:23;182.83;;;117.53;;
18196;SDS011;9224;52.422;13.024;2024-01-16T09:03:50;185.40;;;118.83;;
18196;SDS011;9224;52.422;13.024;2024-01-16T09:06:18;183.33;;;118.57;;
18196;SDS011;9224;52.422;13.024;2024-01-16T09:08:44;182.17;;;117.70;;
18196;SDS011;9224;52.422;13.024;2024-01-16T09:11:11;184.40;;;118.93;;
18196;SDS011;9224;52.422;13.024;2024-01-16T09:13:38;182.27;;;117.73;;
18196;SDS011;9224;52.422;13.024;2024-01-16T09:16:08;184.60;;;118.63;;
18196;SDS011;9224;52.422;13.024;2024-01-16T09:18:34;189.13;;;118.80;;
18196;SDS011;9224;52.422;13.024;2024-01-16T09:21:01;183.87;;;117.97;;
18196;SDS011;9224;52.422;13.024;2024-01-16T09:23:28;185.87;;;117.33;;
18196;SDS011;9224;52.422;13.024;2024-01-16T09:25:55;179.60;;;116.57;;
18196;SDS011;9224;52.422;13.024;2024-01-16T09:28:21;179.20;;;115.93;;
18196;SDS011;9224;52.422;13.024;2024-01-16T09:30:49;177.70;;;115.90;;
18196;SDS011;9224;52.422;13.024;2024-01-16T09:33:20;175.70;;;115.17;;
18196;SDS011;9224;52.422;13.024;2024-01-16T09:35:47;177.53;;;115.80;;
18196;SDS011;9224;52.422;13.024;2024-01-16T09:38:14;178.73;;;116.23;;
18196;SDS011;9224;52.422;13.024;2024-01-16T09:40:41;176.93;;;115.10;;
18196;SDS011;9224;52.422;13.024;2024-01-16T09:43:08;176.93;;;115.50;;
18196;SDS011;9224;52.422;13.024;2024-01-16T09:45:36;177.87;;;114.80;;
18196;SDS011;9224;52.422;13.024;2024-01-16T09:48:03;178.03;;;115.67;;
18196;SDS011;9224;52.422;13.024;2024-01-16T09:50:33;174.23;;;114.80;;
18196;SDS011;9224;52.422;13.024;2024-01-16T09:53:00;192.43;;;118.40;;
18196;SDS011;9224;52.422;13.024;2024-01-16T09:55:29;182.93;;;115.97;;
18196;SDS011;9224;52.422;13.024;2024-01-16T09:57:56;186.23;;;117.10;;
18196;SDS011;9224;52.422;13.024;2024-01-16T10:00:24;181.13;;;115.93;;
18196;SDS011;9224;52.422;13.024;2024-01-16T10:02:51;176.13;;;114.33;;
18196;SDS011;9224;52.422;13.024;2024-01-16T10:05:24;175.90;;;114.03;;
18196;SDS011;9224;52.422;13.024;2024-01-16T10:07:52;172.57;;;114.13;;
18196;SDS011;9224;52.422;13.024;2024-01-16T10:10:18;172.60;;;114.50;;
18196;SDS011;9224;52.422;13.024;2024-01-16T10:12:48;175.13;;;114.60;;
18196;SDS011;9224;52.422;13.024;2024-01-16T10:15:16;177.17;;;114.53;;
18196;SDS011;9224;52.422;13.024;2024-01-16T10:17:42;187.73;;;115.87;;
18196;SDS011;9224;52.422;13.024;2024-01-16T10:20:09;180.10;;;115.17;;
18196;SDS011;9224;52.422;13.024;2024-01-16T10:22:38;171.73;;;113.80;;
18196;SDS011;9224;52.422;13.024;2024-01-16T10:25:07;173.77;;;113.67;;
18196;SDS011;9224;52.422;13.024;2024-01-16T10:27:35;171.53;;;113.60;;
18196;SDS011;9224;52.422;13.024;2024-01-16T10:30:02;172.07;;;114.10;;
18196;SDS011;9224;52.422;13.024;2024-01-16T10:32:30;174.90;;;114.20;;
18196;SDS011;9224;52.422;13.024;2024-01-16T10:35:06;173.90;;;114.23;;
18196;SDS011;9224;52.422;13.024;2024-01-16T10:37:43;185.13;;;116.47;;
18196;SDS011;9224;52.422;13.024;2024-01-16T10:40:12;174.40;;;114.00;;
18196;SDS011;9224;52.422;13.024;2024-01-16T10:42:41;180.07;;;115.93;;
18196;SDS011;9224;52.422;13.024;2024-01-16T10:47:45;182.87;;;115.90;;
18196;SDS011;9224;52.422;13.024;2024-01-16T10:50:12;184.03;;;116.87;;
18196;SDS011;9224;52.422;13.024;2024-01-16T10:52:41;180.37;;;115.63;;
18196;SDS011;9224;52.422;13.024;2024-01-16T10:55:18;187.70;;;118.03;;
18196;SDS011;9224;52.422;13.024;2024-01-16T10:57:46;187.63;;;117.73;;
18196;SDS011;9224;52.422;13.024;2024-01-16T11:00:14;181.23;;;116.40;;
18196;SDS011;9224;52.422;13.024;2024-01-16T11:02:49;181.53;;;116.83;;
18196;SDS011;9224;52.422;13.024;2024-01-16T11:05:16;192.77;;;119.77;;
18196;SDS011;9224;52.422;13.024;2024-01-16T11:07:43;188.07;;;119.27;;
18196;SDS011;9224;52.422;13.024;2024-01-16T11:10:10;186.70;;;119.57;;
18196;SDS011;9224;52.422;13.024;2024-01-16T11:12:39;189.37;;;118.73;;
18196;SDS011;9224;52.422;13.024;2024-01-16T11:15:07;186.53;;;118.73;;
18196;SDS011;9224;52.422;13.024;2024-01-16T11:17:35;186.60;;;117.63;;
18196;SDS011;9224;52.422;13.024;2024-01-16T11:20:03;186.53;;;118.40;;
18196;SDS011;9224;52.422;13.024;2024-01-16T11:22:31;184.87;;;118.30;;
18196;SDS011;9224;52.422;13.024;2024-01-16T11:25:08;186.10;;;118.10;;
18196;SDS011;9224;52.422;13.024;2024-01-16T11:27:35;184.10;;;118.97;;
18196;SDS011;9224;52.422;13.024;2024-01-16T11:30:03;186.10;;;119.10;;
18196;SDS011;9224;52.422;13.024;2024-01-16T11:32:32;185.23;;;119.13;;
18196;SDS011;9224;52.422;13.024;2024-01-16T11:35:00;186.13;;;119.43;;
18196;SDS011;9224;52.422;13.024;2024-01-16T11:37:28;189.90;;;120.20;;
18196;SDS011;9224;52.422;13.024;2024-01-16T11:42:52;189.80;;;118.77;;
18196;SDS011;9224;52.422;13.024;2024-01-16T11:48:18;188.83;;;119.57;;
18196;SDS011;9224;52.422;13.024;2024-01-16T11:50:45;188.03;;;119.47;;
18196;SDS011;9224;52.422;13.024;2024-01-16T11:56:01;187.47;;;119.33;;
18196;SDS011;9224;52.422;13.024;2024-01-16T11:58:42;187.43;;;118.67;;
18196;SDS011;9224;52.422;13.024;2024-01-16T12:01:13;187.73;;;118.83;;
18196;SDS011;9224;52.422;13.024;2024-01-16T12:03:41;187.73;;;120.97;;
18196;SDS011;9224;52.422;13.024;2024-01-16T12:06:08;190.40;;;120.37;;
18196;SDS011;9224;52.422;13.024;2024-01-16T12:08:34;188.13;;;118.90;;
18196;SDS011;9224;52.422;13.024;2024-01-16T12:11:02;182.43;;;118.00;;
18196;SDS011;9224;52.422;13.024;2024-01-16T12:13:29;185.63;;;119.37;;
18196;SDS011;9224;52.422;13.024;2024-01-16T12:15:59;186.83;;;118.60;;
18196;SDS011;9224;52.422;13.024;2024-01-16T12:18:27;183.60;;;117.87;;
18196;SDS011;9224;52.422;13.024;2024-01-16T12:20:54;185.40;;;118.03;;
18196;SDS011;9224;52.422;13.024;2024-01-16T12:23:20;185.33;;;118.63;;
18196;SDS011;9224;52.422;13.024;2024-01-16T12:25:51;189.33;;;120.67;;
18196;SDS011;9224;52.422;13.024;2024-01-16T12:28:20;191.90;;;121.47;;
18196;SDS011;9224;52.422;13.024;2024-01-16T12:30:48;184.90;;;118.73;;
18196;SDS011;9224;52.422;13.024;2024-01-16T12:33:15;185.27;;;118.20;;
18196;SDS011;9224;52.422;13.024;2024-01-16T12:35:43;184.67;;;117.43;;
18196;SDS011;9224;52.422;13.024;2024-01-16T12:38:11;183.60;;;119.30;;
18196;SDS011;9224;52.422;13.024;2024-01-16T12:40:40;195.10;;;119.27;;
18196;SDS011;9224;52.422;13.024;2024-01-16T12:43:07;185.93;;;118.27;;
18196;SDS011;9224;52.422;13.024;2024-01-16T12:45:34;187.10;;;119.00;;
18196;SDS011;9224;52.422;13.024;2024-01-16T12:48:01;182.83;;;116.90;;
18196;SDS011;9224;52.422;13.024;2024-01-16T12:50:28;183.00;;;117.17;;
18196;SDS011;9224;52.422;13.024;2024-01-16T12:53:04;187.57;;;118.90;;
18196;SDS011;9224;52.422;13.024;2024-01-16T12:55:31;185.57;;;117.40;;
18196;SDS011;9224;52.422;13.024;2024-01-16T12:58:14;180.93;;;117.10;;
18196;SDS011;9224;52.422;13.024;2024-01-16T13:00:41;184.53;;;117.93;;
18196;SDS011;9224;52.422;13.024;2024-01-16T13:03:14;184.30;;;117.07;;
18196;SDS011;9224;52.422;13.024;2024-01-16T13:05:41;181.03;;;116.57;;
18196;SDS011;9224;52.422;13.024;2024-01-16T13:08:16;184.60;;;117.23;;
18196;SDS011;9224;52.422;13.024;2024-01-16T13:10:43;180.77;;;116.27;;
18196;SDS011;9224;52.422;13.024;2024-01-16T13:13:13;184.63;;;118.00;;
18196;SDS011;9224;52.422;13.024;2024-01-16T13:15:42;185.40;;;116.77;;
18196;SDS011;9224;52.422;13.024;2024-01-16T13:18:18;178.17;;;116.77;;
18196;SDS011;9224;52.422;13.024;2024-01-16T13:20:47;181.23;;;115.83;;
18196;SDS011;9224;52.422;13.024;2024-01-16T13:23:15;179.90;;;116.07;;
18196;SDS011;9224;52.422;13.024;2024-01-16T13:25:42;181.67;;;116.77;;
18196;SDS011;9224;52.422;13.024;2024-01-16T13:28:10;186.27;;;117.53;;
18196;SDS011;9224;52.422;13.024;2024-01-16T13:30:37;186.97;;;118.17;;
18196;SDS011;9224;52.422;13.024;2024-01-16T13:33:03;181.47;;;116.80;;
18196;SDS011;9224;52.422;13.024;2024-01-16T13:35:30;183.77;;;117.50;;
18196;SDS011;9224;52.422;13.024;2024-01-16T13:37:58;183.70;;;118.90;;
18196;SDS011;9224;52.422;13.024;2024-01-16T13:40:26;185.97;;;117.67;;
18196;SDS011;9224;52.422;13.024;2024-01-16T13:42:52;183.63;;;118.10;;
18196;SDS011;9224;52.422;13.024;2024-01-16T13:45:19;192.17;;;118.73;;
18196;SDS011;9224;52.422;13.024;2024-01-16T13:47:45;180.87;;;116.50;;
18196;SDS011;9224;52.422;13.024;2024-01-16T13:50:12;186.50;;;117.47;;
18196;SDS011;9224;52.422;13.024;2024-01-16T13:52:39;178.50;;;116.17;;
18196;SDS011;9224;52.422;13.024;2024-01-16T13:55:06;178.47;;;116.63;;
18196;SDS011;9224;52.422;13.024;2024-01-16T13:57:34;182.60;;;117.43;;
18196;SDS011;9224;52.422;13.024;2024-01-16T14:00:01;181.50;;;116.27;;
18196;SDS011;9224;52.422;13.024;2024-01-16T14:02:29;182.43;;;117.37;;
18196;SDS011;9224;52.422;13.024;2024-01-16T14:04:55;193.10;;;118.90;;
18196;SDS011;9224;52.422;13.024;2024-01-16T14:07:22;182.53;;;116.30;;
18196;SDS011;9224;52.422;13.024;2024-01-16T14:09:49;181.03;;;116.73;;